Time;durP1;ratioP1;P1;durP2;ratioP2;P2;SDS_P1;SDS_P2;PMS_P1;PMS_P2;Temp;Humidity;BMP_temperature;BMP_pressure;BME280_temperature;BME280_humidity;BME280_pressure;Samples;Min_cycle;Max_cycle;Signal;HPM_P1;HPM_P2
2023/11/01 00:01:36;;;;;;;6.07;3.30;;;;;;;;;;5099330;28;20515;-83
2023/11/01 00:04:02;;;;;;;5.70;3.03;;;;;;;;;;5117726;28;20899;-91
2023/11/01 00:06:28;;;;;;;7.00;3.63;;;;;;;;;;5117204;28;20926;-84
2023/11/01 00:08:54;;;;;;;4.17;2.30;;;;;;;;;;5098178;28;20549;-82
2023/11/01 00:11:20;;;;;;;6.60;2.53;;;;;;;;;;5098602;28;20413;-83
2023/11/01 00:13:46;;;;;;;4.43;2.73;;;;;;;;;;5117459;28;20409;-90
2023/11/01 00:16:11;;;;;;;6.90;3.50;;;;;;;;;;5117503;28;20421;-92
2023/11/01 00:18:37;;;;;;;4.40;2.50;;;;;;;;;;5099091;28;20438;-87
2023/11/01 00:21:03;;;;;;;6.97;2.67;;;;;;;;;;5099349;28;20421;-85
2023/11/01 00:23:29;;;;;;;6.40;2.50;;;;;;;;;;5116522;28;20500;-90
2023/11/01 00:25:56;;;;;;;10.37;2.97;;;;;;;;;;5117647;28;20540;-92
2023/11/01 00:28:22;;;;;;;5.93;2.83;;;;;;;;;;5117170;28;20401;-93
2023/11/01 00:30:47;;;;;;;3.97;2.47;;;;;;;;;;5117233;28;20475;-95
2023/11/01 00:33:14;;;;;;;3.20;1.60;;;;;;;;;;5118064;28;20605;-92
2023/11/01 00:35:40;;;;;;;8.30;3.53;;;;;;;;;;5117330;28;20643;-90
2023/11/01 00:38:07;;;;;;;4.73;1.77;;;;;;;;;;5099085;28;20414;-92
2023/11/01 00:40:32;;;;;;;3.67;1.70;;;;;;;;;;5117706;28;20437;-93
2023/11/01 00:43:04;;;;;;;3.60;1.87;;;;;;;;;;5116675;28;20505;-91
2023/11/01 00:45:31;;;;;;;4.20;3.27;;;;;;;;;;5100049;28;20469;-92
2023/11/01 00:47:57;;;;;;;2.23;1.53;;;;;;;;;;5098516;28;20556;-90
2023/11/01 00:50:23;;;;;;;5.93;1.87;;;;;;;;;;5098850;28;20452;-89
2023/11/01 00:52:49;;;;;;;3.93;1.70;;;;;;;;;;5115720;28;20440;-84
2023/11/01 00:55:16;;;;;;;9.70;2.80;;;;;;;;;;5116835;28;20166;-90
2023/11/01 00:57:42;;;;;;;4.03;1.57;;;;;;;;;;5098419;28;20426;-87
2023/11/01 01:00:09;;;;;;;5.37;1.70;;;;;;;;;;5117091;28;20765;-86
2023/11/01 01:02:34;;;;;;;5.13;2.50;;;;;;;;;;5098471;28;20419;-89
2023/11/01 01:05:00;;;;;;;6.53;2.30;;;;;;;;;;5116406;28;20455;-92
2023/11/01 01:07:26;;;;;;;2.93;2.00;;;;;;;;;;5115812;28;20409;-91
2023/11/01 01:09:52;;;;;;;4.80;2.30;;;;;;;;;;5116683;28;20410;-91
2023/11/01 01:12:18;;;;;;;7.30;1.50;;;;;;;;;;5115964;28;20418;-92
2023/11/01 01:14:44;;;;;;;3.27;1.40;;;;;;;;;;5116693;28;20181;-89
2023/11/01 01:17:11;;;;;;;3.47;2.30;;;;;;;;;;5097750;28;20421;-93
2023/11/01 01:19:37;;;;;;;4.00;1.70;;;;;;;;;;5098234;28;20417;-91
2023/11/01 01:22:03;;;;;;;2.97;1.40;;;;;;;;;;5116339;28;20409;-93
2023/11/01 01:24:29;;;;;;;4.60;1.20;;;;;;;;;;5115494;28;20499;-87
2023/11/01 01:26:55;;;;;;;7.30;1.77;;;;;;;;;;5116473;28;20506;-92
2023/11/01 01:29:21;;;;;;;5.37;1.63;;;;;;;;;;5116431;28;20224;-90
2023/11/01 01:31:47;;;;;;;2.60;1.10;;;;;;;;;;5120085;28;20428;-88
2023/11/01 01:34:12;;;;;;;4.60;1.50;;;;;;;;;;5127564;28;20407;-89
2023/11/01 01:36:38;;;;;;;9.07;1.47;;;;;;;;;;5117688;28;20565;-92
2023/11/01 01:39:04;;;;;;;4.90;1.00;;;;;;;;;;5120237;28;20208;-92
2023/11/01 01:41:30;;;;;;;4.83;1.50;;;;;;;;;;5117664;28;20576;-88
2023/11/01 01:43:56;;;;;;;3.70;1.13;;;;;;;;;;5098264;28;20920;-92
2023/11/01 01:46:22;;;;;;;2.93;1.23;;;;;;;;;;5114688;28;20610;-88
2023/11/01 01:48:49;;;;;;;2.60;1.30;;;;;;;;;;5115320;28;20410;-93
2023/11/01 01:51:15;;;;;;;2.80;1.23;;;;;;;;;;5116143;28;20425;-92
2023/11/01 01:53:42;;;;;;;3.20;0.80;;;;;;;;;;5096841;28;20417;-88
2023/11/01 01:56:08;;;;;;;2.00;0.77;;;;;;;;;;5115427;28;20419;-94
2023/11/01 01:58:37;;;;;;;6.47;0.87;;;;;;;;;;5115300;28;20418;-88
2023/11/01 02:01:04;;;;;;;4.10;1.27;;;;;;;;;;5115282;28;20448;-92
2023/11/01 02:03:30;;;;;;;3.47;0.80;;;;;;;;;;5097537;28;20403;-94
2023/11/01 02:05:56;;;;;;;3.60;0.83;;;;;;;;;;5097572;28;20515;-94
2023/11/01 02:08:22;;;;;;;3.70;0.80;;;;;;;;;;5115565;28;20905;-93
2023/11/01 02:10:48;;;;;;;5.97;1.10;;;;;;;;;;5115642;28;20772;-95
2023/11/01 02:13:15;;;;;;;7.70;1.43;;;;;;;;;;5097236;28;20525;-87
2023/11/01 02:15:42;;;;;;;2.77;1.27;;;;;;;;;;5097175;28;20479;-91
2023/11/01 02:18:08;;;;;;;5.20;1.83;;;;;;;;;;5097293;28;20436;-92
2023/11/01 02:20:35;;;;;;;3.20;1.07;;;;;;;;;;5115287;28;20504;-87
2023/11/01 02:23:02;;;;;;;4.13;1.00;;;;;;;;;;5096701;28;20960;-93
2023/11/01 02:25:28;;;;;;;3.13;1.10;;;;;;;;;;5115649;28;20472;-95
2023/11/01 02:27:56;;;;;;;4.60;2.00;;;;;;;;;;5116349;28;20910;-91
2023/11/01 02:30:21;;;;;;;3.60;1.90;;;;;;;;;;5115434;28;20816;-91
2023/11/01 02:32:48;;;;;;;3.93;1.17;;;;;;;;;;5114911;28;20420;-93
2023/11/01 02:35:20;;;;;;;2.40;0.63;;;;;;;;;;5114734;28;20416;-87
2023/11/01 02:37:47;;;;;;;1.93;0.70;;;;;;;;;;5114459;28;20409;-92
2023/11/01 02:40:14;;;;;;;3.63;1.07;;;;;;;;;;5115031;28;20416;-87
2023/11/01 02:42:40;;;;;;;3.20;0.70;;;;;;;;;;5110321;28;20412;-85
2023/11/01 02:45:09;;;;;;;2.90;1.17;;;;;;;;;;5113650;28;20463;-84
2023/11/01 02:47:39;;;;;;;5.70;1.20;;;;;;;;;;5094770;28;20429;-85
2023/11/01 02:50:05;;;;;;;4.50;1.00;;;;;;;;;;5095043;28;20466;-87
2023/11/01 02:52:32;;;;;;;1.63;0.57;;;;;;;;;;5113431;28;20402;-87
2023/11/01 02:54:57;;;;;;;3.27;0.70;;;;;;;;;;5095595;28;20461;-87
2023/11/01 02:57:23;;;;;;;4.43;0.80;;;;;;;;;;5113847;28;20412;-87
2023/11/01 02:59:49;;;;;;;4.03;1.03;;;;;;;;;;5113583;28;20170;-88
2023/11/01 03:02:16;;;;;;;3.80;0.90;;;;;;;;;;5113788;28;20866;-86
2023/11/01 03:04:42;;;;;;;4.13;1.43;;;;;;;;;;5113584;28;20752;-86
2023/11/01 03:07:08;;;;;;;4.23;0.87;;;;;;;;;;5113524;28;20512;-87
2023/11/01 03:09:34;;;;;;;2.67;0.40;;;;;;;;;;5112995;28;20469;-86
2023/11/01 03:12:00;;;;;;;2.07;0.50;;;;;;;;;;5094411;28;20522;-86
2023/11/01 03:14:26;;;;;;;6.07;0.70;;;;;;;;;;5113433;28;20443;-86
2023/11/01 03:16:52;;;;;;;3.30;0.50;;;;;;;;;;5112250;28;20496;-86
2023/11/01 03:19:18;;;;;;;1.63;0.40;;;;;;;;;;5113281;28;20882;-86
2023/11/01 03:21:43;;;;;;;3.50;0.30;;;;;;;;;;5094853;28;20417;-85
2023/11/01 03:24:09;;;;;;;3.77;0.40;;;;;;;;;;5101369;28;20236;-90
2023/11/01 03:26:35;;;;;;;6.57;0.73;;;;;;;;;;5075393;28;20218;-89
2023/11/01 03:29:01;;;;;;;4.67;0.50;;;;;;;;;;5092276;28;20450;-88
2023/11/01 03:31:27;;;;;;;1.00;0.30;;;;;;;;;;5093133;28;20207;-88
2023/11/01 03:33:53;;;;;;;4.67;0.30;;;;;;;;;;5092921;28;20413;-86
2023/11/01 03:36:19;;;;;;;1.73;0.30;;;;;;;;;;5092940;28;20421;-87
2023/11/01 03:38:45;;;;;;;2.80;0.27;;;;;;;;;;5092372;28;20409;-88
2023/11/01 03:41:11;;;;;;;3.20;0.73;;;;;;;;;;5095801;28;21272;-87
2023/11/01 03:43:37;;;;;;;2.87;0.20;;;;;;;;;;5113228;28;20481;-88
2023/11/01 03:46:03;;;;;;;2.50;0.20;;;;;;;;;;5113011;28;20472;-88
2023/11/01 03:48:31;;;;;;;1.70;0.40;;;;;;;;;;5113200;28;20408;-87
2023/11/01 03:50:57;;;;;;;5.50;0.47;;;;;;;;;;5113061;28;20413;-85
2023/11/01 03:53:22;;;;;;;2.23;0.20;;;;;;;;;;5112759;28;20412;-86
2023/11/01 03:55:48;;;;;;;1.07;0.30;;;;;;;;;;5094724;28;20465;-85
2023/11/01 03:58:14;;;;;;;1.53;0.30;;;;;;;;;;5094758;28;20451;-85
2023/11/01 04:00:41;;;;;;;2.63;0.20;;;;;;;;;;5112963;28;20456;-86
2023/11/01 04:03:07;;;;;;;2.27;0.20;;;;;;;;;;5112868;28;20401;-86
2023/11/01 04:05:33;;;;;;;3.97;0.53;;;;;;;;;;5112783;28;20566;-86
2023/11/01 04:07:59;;;;;;;2.00;0.63;;;;;;;;;;5112573;28;20415;-85
2023/11/01 04:10:25;;;;;;;1.80;0.20;;;;;;;;;;5112923;28;20424;-86
2023/11/01 04:12:51;;;;;;;0.67;0.20;;;;;;;;;;5112782;28;20412;-86
2023/11/01 04:15:18;;;;;;;0.60;0.30;;;;;;;;;;5112914;28;20454;-86
2023/11/01 04:17:44;;;;;;;1.83;0.30;;;;;;;;;;5112955;28;20967;-85
2023/11/01 04:20:10;;;;;;;3.10;0.40;;;;;;;;;;5112736;28;20448;-84
2023/11/01 04:22:39;;;;;;;2.10;0.37;;;;;;;;;;5111964;28;20416;-85
2023/11/01 04:25:05;;;;;;;1.80;0.27;;;;;;;;;;5111987;28;20458;-84
2023/11/01 04:27:35;;;;;;;1.40;0.30;;;;;;;;;;5112750;28;20429;-85
2023/11/01 04:30:01;;;;;;;2.03;0.37;;;;;;;;;;5111572;28;20459;-84
2023/11/01 04:32:28;;;;;;;4.43;0.60;;;;;;;;;;5111227;28;20409;-84
2023/11/01 04:34:55;;;;;;;5.80;0.40;;;;;;;;;;5094667;28;20821;-86
2023/11/01 04:37:22;;;;;;;2.17;0.20;;;;;;;;;;5112664;28;20473;-85
2023/11/01 04:39:48;;;;;;;1.40;0.40;;;;;;;;;;5112950;28;20413;-87
2023/11/01 04:42:18;;;;;;;1.63;0.30;;;;;;;;;;5098354;28;20437;-87
2023/11/01 04:44:44;;;;;;;2.03;0.60;;;;;;;;;;5101025;28;20428;-84
2023/11/01 04:47:10;;;;;;;1.60;0.20;;;;;;;;;;5095039;28;20422;-84
2023/11/01 04:49:36;;;;;;;2.03;0.40;;;;;;;;;;5094063;28;20495;-84
2023/11/01 04:52:02;;;;;;;2.10;0.23;;;;;;;;;;5094209;28;20920;-83
2023/11/01 04:54:28;;;;;;;1.57;0.20;;;;;;;;;;5095956;28;20409;-85
2023/11/01 04:56:54;;;;;;;4.77;0.60;;;;;;;;;;5095849;28;20405;-84
2023/11/01 04:59:20;;;;;;;1.73;0.50;;;;;;;;;;5095777;28;20780;-85
2023/11/01 05:01:47;;;;;;;3.67;0.40;;;;;;;;;;5095886;28;20436;-86
2023/11/01 05:04:13;;;;;;;3.23;0.30;;;;;;;;;;5095777;28;20421;-82
2023/11/01 05:06:39;;;;;;;5.30;0.57;;;;;;;;;;5095744;28;20464;-82
2023/11/01 05:09:07;;;;;;;4.40;0.47;;;;;;;;;;5077275;28;20905;-83
2023/11/01 05:11:33;;;;;;;2.03;0.30;;;;;;;;;;5095596;28;20424;-82
2023/11/01 05:13:59;;;;;;;2.10;0.10;;;;;;;;;;5095645;28;20404;-84
2023/11/01 05:16:25;;;;;;;2.47;0.27;;;;;;;;;;5077415;28;20424;-83
2023/11/01 05:18:53;;;;;;;2.33;0.33;;;;;;;;;;5095588;28;20440;-83
2023/11/01 05:21:19;;;;;;;0.70;0.43;;;;;;;;;;5077839;28;20425;-84
2023/11/01 05:23:46;;;;;;;2.70;0.53;;;;;;;;;;5095054;28;20747;-83
2023/11/01 05:26:16;;;;;;;1.93;0.20;;;;;;;;;;5095347;28;20905;-83
2023/11/01 05:28:42;;;;;;;3.27;0.80;;;;;;;;;;5095168;28;20408;-83
2023/11/01 05:31:08;;;;;;;1.17;0.20;;;;;;;;;;5077326;28;20440;-83
2023/11/01 05:33:34;;;;;;;2.70;0.50;;;;;;;;;;5095264;28;20416;-82
2023/11/01 05:36:06;;;;;;;2.30;0.20;;;;;;;;;;5095163;28;20894;-82
2023/11/01 05:38:32;;;;;;;1.67;0.20;;;;;;;;;;5094862;28;20404;-85
2023/11/01 05:40:58;;;;;;;2.00;0.40;;;;;;;;;;5094847;28;20416;-85
2023/11/01 05:43:24;;;;;;;3.77;0.60;;;;;;;;;;5095139;28;20396;-85
2023/11/01 05:45:50;;;;;;;4.87;0.40;;;;;;;;;;5094977;28;20832;-85
2023/11/01 05:48:16;;;;;;;3.90;0.47;;;;;;;;;;5094882;28;20402;-84
2023/11/01 05:50:46;;;;;;;1.77;0.70;;;;;;;;;;5076715;28;20514;-85
2023/11/01 05:53:12;;;;;;;3.13;1.00;;;;;;;;;;5093760;28;20420;-84
2023/11/01 05:55:38;;;;;;;4.20;0.50;;;;;;;;;;5094854;28;20500;-85
2023/11/01 05:58:07;;;;;;;3.97;0.40;;;;;;;;;;5094596;28;20413;-84
2023/11/01 06:00:34;;;;;;;3.13;0.60;;;;;;;;;;5094714;28;20411;-84
2023/11/01 06:03:00;;;;;;;4.20;0.70;;;;;;;;;;5076843;28;20815;-83
2023/11/01 06:05:26;;;;;;;2.07;0.40;;;;;;;;;;5094485;28;20461;-84
2023/11/01 06:07:52;;;;;;;2.73;1.13;;;;;;;;;;5076100;28;20424;-83
2023/11/01 06:10:18;;;;;;;2.23;0.70;;;;;;;;;;5094610;28;20477;-84
2023/11/01 06:12:44;;;;;;;2.20;0.30;;;;;;;;;;5094188;28;20928;-84
2023/11/01 06:15:11;;;;;;;4.57;0.80;;;;;;;;;;5094424;28;20486;-84
2023/11/01 06:17:40;;;;;;;2.83;1.30;;;;;;;;;;5094429;28;20411;-84
2023/11/01 06:20:06;;;;;;;1.80;0.60;;;;;;;;;;5094311;28;20412;-84
2023/11/01 06:22:32;;;;;;;2.90;0.73;;;;;;;;;;5093989;28;20397;-84
2023/11/01 06:25:00;;;;;;;2.27;0.60;;;;;;;;;;5076045;28;20483;-84
2023/11/01 06:27:26;;;;;;;2.37;0.60;;;;;;;;;;5094222;28;20408;-85
2023/11/01 06:29:52;;;;;;;3.20;1.30;;;;;;;;;;5093982;28;20459;-85
2023/11/01 06:32:18;;;;;;;4.03;0.50;;;;;;;;;;5094243;28;20415;-83
2023/11/01 06:34:44;;;;;;;4.23;1.10;;;;;;;;;;5094183;28;20726;-84
2023/11/01 06:37:10;;;;;;;5.43;0.60;;;;;;;;;;5093694;28;20510;-84
2023/11/01 06:39:36;;;;;;;3.50;0.77;;;;;;;;;;5093851;28;20496;-83
2023/11/01 06:42:02;;;;;;;4.50;0.87;;;;;;;;;;5093631;28;20424;-83
2023/11/01 06:44:28;;;;;;;6.97;1.20;;;;;;;;;;5093803;28;20410;-84
2023/11/01 06:46:54;;;;;;;4.03;1.13;;;;;;;;;;5075566;28;20812;-84
2023/11/01 06:49:20;;;;;;;5.93;1.23;;;;;;;;;;5093728;28;20406;-83
2023/11/01 06:51:46;;;;;;;9.03;0.87;;;;;;;;;;5093383;28;20820;-83
2023/11/01 06:54:13;;;;;;;3.50;1.57;;;;;;;;;;5093655;28;20404;-83
2023/11/01 06:56:45;;;;;;;3.83;1.13;;;;;;;;;;5093717;28;20418;-83
2023/11/01 06:59:12;;;;;;;4.93;2.27;;;;;;;;;;5093658;28;20447;-84
2023/11/01 07:01:38;;;;;;;8.10;1.43;;;;;;;;;;5093616;28;20436;-89
2023/11/01 07:04:04;;;;;;;3.60;1.03;;;;;;;;;;5093610;28;20492;-86
2023/11/01 07:06:30;;;;;;;5.20;1.00;;;;;;;;;;5093505;28;20860;-85
2023/11/01 07:08:56;;;;;;;7.40;1.50;;;;;;;;;;5093241;28;20491;-86
2023/11/01 07:11:24;;;;;;;6.10;1.60;;;;;;;;;;5092645;28;20567;-85
2023/11/01 07:13:50;;;;;;;5.67;1.20;;;;;;;;;;5093539;28;20170;-84
2023/11/01 07:16:16;;;;;;;3.20;0.67;;;;;;;;;;5093453;28;20785;-85
2023/11/01 07:18:42;;;;;;;4.67;1.20;;;;;;;;;;5093433;28;20409;-87
2023/11/01 07:21:11;;;;;;;4.10;1.60;;;;;;;;;;5092347;28;20889;-86
2023/11/01 07:23:36;;;;;;;5.60;1.40;;;;;;;;;;5092984;28;20642;-86
2023/11/01 07:26:02;;;;;;;3.77;1.10;;;;;;;;;;5075065;28;20491;-84
2023/11/01 07:28:29;;;;;;;7.53;1.20;;;;;;;;;;5093264;28;20406;-86
2023/11/01 07:30:55;;;;;;;4.30;1.30;;;;;;;;;;5093162;28;20979;-86
2023/11/01 07:33:21;;;;;;;3.50;1.30;;;;;;;;;;5093198;28;20411;-87
2023/11/01 07:35:47;;;;;;;4.17;1.47;;;;;;;;;;5093240;28;20420;-86
2023/11/01 07:38:13;;;;;;;8.63;0.83;;;;;;;;;;5085632;28;20496;-87
2023/11/01 07:40:39;;;;;;;5.97;1.17;;;;;;;;;;5054415;28;20424;-88
2023/11/01 07:43:05;;;;;;;10.23;1.93;;;;;;;;;;5073075;28;20537;-87
2023/11/01 07:45:32;;;;;;;6.63;2.30;;;;;;;;;;5072878;28;20468;-86
2023/11/01 07:47:58;;;;;;;5.47;1.20;;;;;;;;;;5072808;28;20499;-87
2023/11/01 07:50:27;;;;;;;2.00;0.60;;;;;;;;;;5072870;28;20746;-86
2023/11/01 07:52:52;;;;;;;6.17;1.30;;;;;;;;;;5071506;28;20906;-86
2023/11/01 07:55:18;;;;;;;8.47;1.40;;;;;;;;;;5072840;28;20421;-85
2023/11/01 07:57:44;;;;;;;4.17;1.03;;;;;;;;;;5072827;28;20417;-85
2023/11/01 08:00:12;;;;;;;7.17;1.07;;;;;;;;;;5072700;28;20417;-86
2023/11/01 08:02:38;;;;;;;3.87;1.47;;;;;;;;;;5072873;28;20452;-85
2023/11/01 08:05:05;;;;;;;6.30;1.83;;;;;;;;;;5072047;28;20458;-83
2023/11/01 08:07:31;;;;;;;4.37;1.47;;;;;;;;;;5072557;28;20184;-86
2023/11/01 08:09:58;;;;;;;6.30;1.30;;;;;;;;;;5072875;28;20504;-87
2023/11/01 08:12:24;;;;;;;6.20;1.70;;;;;;;;;;5072808;28;20422;-87
2023/11/01 08:14:50;;;;;;;7.40;1.63;;;;;;;;;;5072580;28;20421;-85
2023/11/01 08:17:16;;;;;;;4.93;1.43;;;;;;;;;;5069948;28;20451;-84
2023/11/01 08:19:41;;;;;;;4.73;2.00;;;;;;;;;;5081409;28;20457;-84
2023/11/01 08:22:10;;;;;;;2.20;0.87;;;;;;;;;;5081032;28;20462;-87
2023/11/01 08:24:38;;;;;;;5.20;1.23;;;;;;;;;;5081956;28;20428;-83
2023/11/01 08:27:04;;;;;;;3.43;1.30;;;;;;;;;;5081083;28;21043;-85
2023/11/01 08:29:31;;;;;;;5.60;1.53;;;;;;;;;;5080868;28;20479;-84
2023/11/01 08:31:56;;;;;;;3.70;1.40;;;;;;;;;;5081753;28;20433;-84
2023/11/01 08:34:22;;;;;;;4.73;0.90;;;;;;;;;;5081433;28;20449;-86
2023/11/01 08:36:49;;;;;;;8.80;1.80;;;;;;;;;;5081400;28;20519;-85
2023/11/01 08:39:14;;;;;;;7.10;4.43;;;;;;;;;;5080061;28;20531;-85
2023/11/01 08:41:40;;;;;;;5.83;1.67;;;;;;;;;;5066421;28;20994;-84
2023/11/01 08:44:06;;;;;;;6.03;1.83;;;;;;;;;;5082271;28;20574;-83
2023/11/01 08:46:32;;;;;;;6.37;2.30;;;;;;;;;;5082037;28;20528;-89
2023/11/01 08:48:58;;;;;;;5.23;1.80;;;;;;;;;;5081515;28;20453;-86
2023/11/01 08:51:25;;;;;;;12.70;2.57;;;;;;;;;;5080721;28;20894;-85
2023/11/01 08:53:51;;;;;;;4.93;2.03;;;;;;;;;;5080008;28;20438;-84
2023/11/01 08:56:17;;;;;;;3.63;1.67;;;;;;;;;;5081762;28;20438;-85
2023/11/01 08:58:43;;;;;;;3.30;1.40;;;;;;;;;;5080963;28;20426;-87
2023/11/01 09:01:09;;;;;;;8.77;2.27;;;;;;;;;;5080117;28;21028;-86
2023/11/01 09:03:35;;;;;;;5.40;2.40;;;;;;;;;;5081472;28;20479;-87
2023/11/01 09:06:01;;;;;;;3.80;1.53;;;;;;;;;;5065657;28;20530;-84
2023/11/01 09:08:26;;;;;;;3.97;2.37;;;;;;;;;;5080414;28;20840;-83
2023/11/01 09:10:52;;;;;;;4.53;2.20;;;;;;;;;;5078995;28;20444;-87
2023/11/01 09:13:18;;;;;;;6.13;2.70;;;;;;;;;;5080473;28;20988;-86
2023/11/01 09:15:45;;;;;;;5.40;1.37;;;;;;;;;;5080148;28;20440;-86
2023/11/01 09:18:11;;;;;;;10.00;3.10;;;;;;;;;;5078257;28;20448;-85
2023/11/01 09:20:37;;;;;;;7.00;2.90;;;;;;;;;;5080675;28;20938;-84
2023/11/01 09:23:03;;;;;;;4.53;2.60;;;;;;;;;;5080383;28;20430;-84
2023/11/01 09:25:29;;;;;;;6.20;3.40;;;;;;;;;;5063165;28;20997;-85
2023/11/01 09:27:55;;;;;;;7.43;2.10;;;;;;;;;;5082017;28;20465;-85
2023/11/01 09:30:21;;;;;;;7.87;2.37;;;;;;;;;;5082213;28;20470;-85
2023/11/01 09:32:47;;;;;;;7.33;2.50;;;;;;;;;;5083774;28;20430;-85
2023/11/01 09:35:13;;;;;;;7.47;2.70;;;;;;;;;;5082406;28;20828;-86
2023/11/01 09:37:39;;;;;;;9.07;3.13;;;;;;;;;;5082412;28;20433;-87
2023/11/01 09:40:10;;;;;;;6.63;3.07;;;;;;;;;;5081310;28;20434;-86
2023/11/01 09:42:36;;;;;;;5.57;2.57;;;;;;;;;;5080111;28;20593;-84
2023/11/01 09:45:04;;;;;;;7.60;2.70;;;;;;;;;;5080545;28;20470;-85
2023/11/01 09:47:30;;;;;;;5.13;3.07;;;;;;;;;;5080497;28;20821;-84
2023/11/01 09:49:56;;;;;;;5.60;3.07;;;;;;;;;;5081203;28;20472;-83
2023/11/01 09:52:30;;;;;;;8.80;3.10;;;;;;;;;;5078311;28;20443;-85
2023/11/01 09:54:55;;;;;;;6.70;3.10;;;;;;;;;;5079469;28;20518;-85
2023/11/01 09:57:25;;;;;;;4.50;2.93;;;;;;;;;;5079815;28;20532;-87
2023/11/01 09:59:52;;;;;;;4.47;3.00;;;;;;;;;;5079302;28;20420;-84
2023/11/01 10:02:19;;;;;;;5.87;2.57;;;;;;;;;;5064726;28;20444;-86
2023/11/01 10:04:45;;;;;;;6.10;3.13;;;;;;;;;;5075921;28;20425;-84
2023/11/01 10:07:11;;;;;;;5.90;3.80;;;;;;;;;;5079827;28;20452;-86
2023/11/01 10:09:38;;;;;;;9.63;3.33;;;;;;;;;;5081578;28;20431;-85
2023/11/01 10:12:07;;;;;;;7.13;3.13;;;;;;;;;;5082879;28;20796;-85
2023/11/01 10:14:33;;;;;;;6.90;3.40;;;;;;;;;;5083518;28;20492;-85
2023/11/01 10:16:59;;;;;;;7.90;4.20;;;;;;;;;;5078801;28;20973;-85
2023/11/01 10:19:26;;;;;;;8.03;3.40;;;;;;;;;;5080376;28;20469;-86
2023/11/01 10:21:52;;;;;;;5.87;3.60;;;;;;;;;;5078701;28;20444;-90
2023/11/01 10:24:18;;;;;;;6.63;2.73;;;;;;;;;;5077980;28;20802;-85
2023/11/01 10:26:44;;;;;;;7.60;3.90;;;;;;;;;;5079990;28;20487;-86
2023/11/01 10:29:10;;;;;;;9.13;3.60;;;;;;;;;;5078120;28;21004;-86
2023/11/01 10:31:36;;;;;;;6.30;3.47;;;;;;;;;;5078173;28;20438;-86
2023/11/01 10:34:12;;;;;;;3.53;2.30;;;;;;;;;;5078808;28;20435;-86
2023/11/01 10:36:51;;;;;;;5.43;3.00;;;;;;;;;;5078582;28;20439;-86
2023/11/01 10:39:20;;;;;;;7.77;3.30;;;;;;;;;;5077917;28;20488;-83
2023/11/01 10:41:50;;;;;;;5.77;2.40;;;;;;;;;;5078012;28;20447;-87
2023/11/01 10:44:17;;;;;;;11.40;3.43;;;;;;;;;;5077568;28;20490;-83
2023/11/01 10:46:43;;;;;;;8.30;4.23;;;;;;;;;;5068546;28;20499;-83
2023/11/01 10:49:10;;;;;;;5.17;3.13;;;;;;;;;;5079710;28;20506;-87
2023/11/01 10:51:37;;;;;;;6.60;3.40;;;;;;;;;;5077022;28;20433;-85
2023/11/01 10:54:03;;;;;;;6.60;3.73;;;;;;;;;;5077744;28;20437;-84
2023/11/01 10:56:29;;;;;;;6.93;3.97;;;;;;;;;;5077559;28;20433;-85
2023/11/01 10:59:01;;;;;;;10.30;3.60;;;;;;;;;;5077980;28;20437;-83
2023/11/01 11:01:30;;;;;;;5.87;3.67;;;;;;;;;;5079674;28;21121;-87
2023/11/01 11:04:02;;;;;;;4.67;3.37;;;;;;;;;;5077743;28;20437;-89
2023/11/01 11:06:31;;;;;;;6.80;3.60;;;;;;;;;;5078339;28;20550;-85
2023/11/01 11:09:16;;;;;;;6.53;3.87;;;;;;;;;;5077991;28;20438;-87
2023/11/01 11:11:42;;;;;;;6.47;4.10;;;;;;;;;;5075988;28;20432;-85
2023/11/01 11:14:37;;;;;;;6.03;2.97;;;;;;;;;;5077942;28;20434;-89
2023/11/01 11:17:06;;;;;;;5.63;3.70;;;;;;;;;;5076447;28;20443;-87
2023/11/01 11:19:51;;;;;;;8.53;3.47;;;;;;;;;;5076793;28;20565;-83
2023/11/01 11:22:17;;;;;;;5.07;3.80;;;;;;;;;;5079025;28;20436;-87
2023/11/01 11:24:46;;;;;;;6.10;2.90;;;;;;;;;;5078701;28;20844;-88
2023/11/01 11:27:31;;;;;;;5.10;3.53;;;;;;;;;;5077458;28;20490;-83
2023/11/01 11:29:57;;;;;;;6.97;3.90;;;;;;;;;;5060795;28;20562;-85
2023/11/01 11:32:23;;;;;;;4.27;2.97;;;;;;;;;;5078624;28;20516;-86
2023/11/01 11:34:49;;;;;;;7.17;4.50;;;;;;;;;;5077963;28;20536;-83
2023/11/01 11:37:16;;;;;;;9.53;3.30;;;;;;;;;;5067813;28;20430;-89
2023/11/01 11:39:53;;;;;;;7.23;4.57;;;;;;;;;;5077753;28;20441;-87
2023/11/01 11:42:37;;;;;;;8.10;4.20;;;;;;;;;;5069170;28;20431;-85
2023/11/01 11:45:03;;;;;;;6.20;4.10;;;;;;;;;;5076235;28;20483;-83
2023/11/01 11:47:29;;;;;;;7.30;4.23;;;;;;;;;;5077927;28;20445;-87
2023/11/01 11:50:05;;;;;;;6.30;4.10;;;;;;;;;;5076809;28;20422;-85
2023/11/01 11:52:31;;;;;;;8.43;4.60;;;;;;;;;;5081221;28;20443;-83
2023/11/01 11:54:57;;;;;;;9.53;5.13;;;;;;;;;;5080067;28;20434;-86
2023/11/01 11:57:26;;;;;;;11.87;4.50;;;;;;;;;;5081486;28;20942;-83
2023/11/01 12:00:00;;;;;;;7.93;4.87;;;;;;;;;;5077161;28;20189;-86
2023/11/01 12:02:26;;;;;;;7.97;4.43;;;;;;;;;;5083170;28;20829;-86
2023/11/01 12:04:52;;;;;;;7.90;4.27;;;;;;;;;;5082089;28;20477;-82
2023/11/01 12:07:18;;;;;;;7.67;4.30;;;;;;;;;;5080851;28;20501;-86
2023/11/01 12:09:48;;;;;;;6.83;4.27;;;;;;;;;;5081708;28;20780;-86
2023/11/01 12:12:14;;;;;;;8.23;3.83;;;;;;;;;;5079862;28;20467;-88
2023/11/01 12:14:40;;;;;;;8.87;4.23;;;;;;;;;;5064672;28;20577;-83
2023/11/01 12:17:07;;;;;;;7.30;3.70;;;;;;;;;;5081571;28;20440;-88
2023/11/01 12:19:33;;;;;;;6.50;3.13;;;;;;;;;;5081920;28;20442;-87
2023/11/01 12:21:59;;;;;;;3.83;2.43;;;;;;;;;;5079884;28;20431;-83
2023/11/01 12:24:28;;;;;;;4.33;2.23;;;;;;;;;;5080477;28;20430;-88
2023/11/01 12:27:01;;;;;;;6.10;2.90;;;;;;;;;;5081286;28;20460;-85
2023/11/01 12:29:31;;;;;;;4.03;2.27;;;;;;;;;;5080924;28;20451;-87
2023/11/01 12:32:04;;;;;;;4.00;2.10;;;;;;;;;;5080641;28;21055;-89
2023/11/01 12:34:31;;;;;;;3.33;1.17;;;;;;;;;;5080679;28;20454;-87
2023/11/01 12:37:13;;;;;;;5.13;1.77;;;;;;;;;;5082209;28;20894;-84
2023/11/01 12:39:39;;;;;;;3.13;1.67;;;;;;;;;;5081388;28;20784;-83
2023/11/01 12:42:20;;;;;;;2.80;1.87;;;;;;;;;;5080880;28;20433;-86
2023/11/01 12:44:47;;;;;;;2.70;1.00;;;;;;;;;;5065298;28;20953;-89
2023/11/01 12:47:13;;;;;;;2.50;1.67;;;;;;;;;;5081676;28;20541;-86
2023/11/01 12:49:42;;;;;;;1.73;0.77;;;;;;;;;;5060453;28;20431;-85
2023/11/01 12:52:08;;;;;;;1.63;0.63;;;;;;;;;;5081406;28;20453;-85
2023/11/01 12:54:35;;;;;;;2.03;0.60;;;;;;;;;;5082862;28;20435;-86
2023/11/01 12:57:02;;;;;;;1.53;1.00;;;;;;;;;;5083014;28;20453;-85
2023/11/01 12:59:28;;;;;;;2.00;0.37;;;;;;;;;;5084204;28;20440;-87
2023/11/01 13:01:54;;;;;;;1.83;0.60;;;;;;;;;;5083012;28;20453;-85
2023/11/01 13:04:21;;;;;;;2.40;0.20;;;;;;;;;;5081495;28;20431;-88
2023/11/01 13:06:47;;;;;;;1.43;0.60;;;;;;;;;;5079295;28;20567;-84
2023/11/01 13:09:15;;;;;;;1.50;0.30;;;;;;;;;;5081872;28;20541;-86
2023/11/01 13:11:41;;;;;;;1.67;0.60;;;;;;;;;;5080957;28;20445;-87
2023/11/01 13:14:07;;;;;;;0.73;0.30;;;;;;;;;;5077086;28;20454;-86
2023/11/01 13:16:33;;;;;;;3.77;0.30;;;;;;;;;;5078073;28;20450;-85
2023/11/01 13:18:59;;;;;;;0.90;0.30;;;;;;;;;;5079862;28;20940;-84
2023/11/01 13:21:25;;;;;;;1.27;0.40;;;;;;;;;;5080212;28;20495;-88
2023/11/01 13:23:51;;;;;;;2.80;0.53;;;;;;;;;;5070801;28;20172;-84
2023/11/01 13:26:19;;;;;;;0.87;0.40;;;;;;;;;;5070224;28;20481;-86
2023/11/01 13:28:45;;;;;;;0.60;0.30;;;;;;;;;;5063207;28;20544;-84
2023/11/01 13:31:11;;;;;;;2.77;0.60;;;;;;;;;;5079566;28;20474;-83
2023/11/01 13:33:39;;;;;;;0.77;0.30;;;;;;;;;;5079630;28;20458;-85
2023/11/01 13:36:06;;;;;;;1.77;0.20;;;;;;;;;;5068393;28;20184;-87
2023/11/01 13:38:32;;;;;;;1.30;0.40;;;;;;;;;;5081638;28;20416;-86
2023/11/01 13:40:58;;;;;;;1.57;0.67;;;;;;;;;;5080312;28;20433;-84
2023/11/01 13:43:24;;;;;;;3.50;0.50;;;;;;;;;;5081379;28;20181;-86
2023/11/01 13:45:52;;;;;;;1.80;0.63;;;;;;;;;;5079883;28;20465;-84
2023/11/01 13:48:18;;;;;;;1.50;0.67;;;;;;;;;;5082106;28;20181;-85
2023/11/01 13:50:45;;;;;;;2.50;0.47;;;;;;;;;;5080966;28;20477;-88
2023/11/01 13:53:11;;;;;;;1.97;0.90;;;;;;;;;;5069189;28;20430;-84
2023/11/01 13:55:45;;;;;;;1.73;0.50;;;;;;;;;;5080094;28;20436;-86
2023/11/01 13:58:11;;;;;;;3.67;0.87;;;;;;;;;;5069649;28;20325;-87
2023/11/01 14:00:37;;;;;;;1.67;0.60;;;;;;;;;;5079944;28;20518;-86
2023/11/01 14:03:04;;;;;;;4.90;1.03;;;;;;;;;;5078961;28;20815;-84
2023/11/01 14:05:30;;;;;;;1.80;0.50;;;;;;;;;;5078451;28;20341;-83
2023/11/01 14:07:57;;;;;;;1.87;0.80;;;;;;;;;;5078053;28;20443;-86
2023/11/01 14:10:23;;;;;;;3.07;0.80;;;;;;;;;;5062370;28;20911;-88
2023/11/01 14:12:49;;;;;;;3.67;0.43;;;;;;;;;;5062628;28;20802;-86
2023/11/01 14:15:18;;;;;;;1.70;0.50;;;;;;;;;;5079822;28;20492;-83
2023/11/01 14:17:44;;;;;;;2.10;1.10;;;;;;;;;;5062736;28;20441;-83
2023/11/01 14:20:10;;;;;;;1.77;0.67;;;;;;;;;;5069336;28;20445;-84
2023/11/01 14:22:42;;;;;;;5.67;1.23;;;;;;;;;;5077674;28;20419;-86
2023/11/01 14:25:09;;;;;;;2.70;1.77;;;;;;;;;;5077014;28;20431;-86
2023/11/01 14:27:35;;;;;;;2.73;1.03;;;;;;;;;;5080279;28;20970;-88
2023/11/01 14:30:01;;;;;;;3.00;0.90;;;;;;;;;;5077830;28;20562;-86
2023/11/01 14:32:28;;;;;;;4.53;1.00;;;;;;;;;;5078482;28;21022;-85
2023/11/01 14:34:54;;;;;;;2.00;0.93;;;;;;;;;;5078988;28;20435;-86
2023/11/01 14:37:20;;;;;;;3.13;1.00;;;;;;;;;;5074466;28;20782;-87
2023/11/01 14:39:46;;;;;;;2.77;0.80;;;;;;;;;;5073649;28;20443;-86
2023/11/01 14:42:12;;;;;;;4.00;1.33;;;;;;;;;;5089411;28;20793;-86